createdAt,value
2023-02-27T00:01:26.522Z,62.75
2023-02-27T00:03:48.439Z,62.38
2023-02-27T00:06:10.288Z,62.56
2023-02-27T00:08:32.964Z,62.96
2023-02-27T00:10:54.638Z,63.38
2023-02-27T00:13:16.837Z,63.09
2023-02-27T00:15:40.937Z,62.37
2023-02-27T00:18:02.727Z,62.72
2023-02-27T00:20:24.917Z,62.08
2023-02-27T00:22:46.929Z,62.53
2023-02-27T00:25:10.221Z,62.92
2023-02-27T00:27:32.694Z,62.39
2023-02-27T00:29:54.333Z,62.49
2023-02-27T00:32:16.505Z,62.37
2023-02-27T00:34:38.238Z,62.51
2023-02-27T00:36:59.919Z,62.54
2023-02-27T00:39:21.506Z,62.47
2023-02-27T00:41:43.224Z,62.23
2023-02-27T00:44:05.157Z,62.33
2023-02-27T00:46:26.727Z,62.33
2023-02-27T00:48:48.461Z,62.44
2023-02-27T00:51:10.064Z,62.74
2023-02-27T00:53:31.744Z,62.38
2023-02-27T00:55:53.422Z,62.33
2023-02-27T00:58:15.032Z,62.73
2023-02-27T01:00:36.728Z,62.75
2023-02-27T01:02:58.383Z,63.08
2023-02-27T01:05:20.367Z,62.80
2023-02-27T01:07:42.387Z,62.90
2023-02-27T01:10:06.079Z,62.48
2023-02-27T01:12:27.763Z,62.88
2023-02-27T01:14:49.458Z,62.75
2023-02-27T01:17:12.700Z,63.16
2023-02-27T01:19:34.329Z,63.06
2023-02-27T01:21:56.089Z,63.30
2023-02-27T01:24:19.763Z,63.37
2023-02-27T01:26:42.995Z,63.02
2023-02-27T01:29:06.508Z,63.20
2023-02-27T01:31:28.601Z,63.53
2023-02-27T01:33:50.427Z,63.28
2023-02-27T01:36:12.080Z,63.13
2023-02-27T01:38:33.678Z,63.57
2023-02-27T01:40:56.120Z,63.37
2023-02-27T01:43:21.719Z,63.93
2023-02-27T01:45:49.743Z,63.71
2023-02-27T01:48:20.197Z,63.41
2023-02-27T01:51:13.832Z,63.27
2023-02-27T01:53:40.042Z,63.72
2023-02-27T01:56:11.523Z,63.77
2023-02-27T01:58:34.051Z,63.48
2023-02-27T02:00:57.233Z,63.24
2023-02-27T02:03:47.189Z,63.30
2023-02-27T02:06:09.010Z,63.56
2023-02-27T02:08:36.719Z,63.66
2023-02-27T02:11:00.051Z,63.70
2023-02-27T02:13:22.734Z,63.58
2023-02-27T02:16:00.529Z,63.22
2023-02-27T02:18:57.686Z,63.77
2023-02-27T02:21:40.581Z,63.16
2023-02-27T02:24:41.746Z,63.76
2023-02-27T02:27:21.247Z,63.29
2023-02-27T02:30:29.624Z,62.85
2023-02-27T02:33:30.009Z,63.52
2023-02-27T02:36:22.865Z,63.00
2023-02-27T02:38:50.976Z,63.05
2023-02-27T02:41:30.922Z,62.67
2023-02-27T02:44:24.439Z,63.14
2023-02-27T02:47:07.379Z,62.89
2023-02-27T02:50:09.062Z,62.78
2023-02-27T02:52:46.920Z,63.10
2023-02-27T02:55:48.520Z,63.17
2023-02-27T02:58:33.904Z,63.54
2023-02-27T03:01:16.399Z,63.21
2023-02-27T03:03:54.134Z,62.59
2023-02-27T03:06:34.781Z,63.27
2023-02-27T03:09:24.040Z,63.16
2023-02-27T03:11:50.967Z,63.21
2023-02-27T03:14:37.098Z,63.07
2023-02-27T03:17:16.751Z,63.31
2023-02-27T03:19:53.435Z,62.78
2023-02-27T03:22:21.967Z,62.68
2023-02-27T03:24:50.584Z,63.19
2023-02-27T03:27:15.594Z,63.08
2023-02-27T03:29:58.173Z,63.16
2023-02-27T03:32:33.449Z,63.30
2023-02-27T03:34:55.923Z,63.23
2023-02-27T03:37:45.830Z,63.49
2023-02-27T03:40:37.731Z,63.19
2023-02-27T03:43:47.652Z,63.42
2023-02-27T03:46:24.720Z,63.25
2023-02-27T03:48:47.192Z,62.99
2023-02-27T03:51:24.484Z,63.13
2023-02-27T03:54:01.427Z,63.46
2023-02-27T03:56:35.290Z,63.23
2023-02-27T03:58:58.019Z,63.78
2023-02-27T04:01:20.115Z,63.44
2023-02-27T04:03:54.371Z,63.79
2023-02-27T04:06:58.326Z,63.73
2023-02-27T04:09:58.692Z,63.84
2023-02-27T04:12:56.457Z,63.72
2023-02-27T04:16:03.487Z,64.16
2023-02-27T04:18:50.509Z,63.85
2023-02-27T04:22:08.829Z,63.83
2023-02-27T04:25:02.250Z,63.99
2023-02-27T04:28:13.998Z,64.08
2023-02-27T04:30:55.592Z,63.82
2023-02-27T04:33:40.038Z,63.97
2023-02-27T04:36:24.866Z,63.75
2023-02-27T04:39:05.729Z,63.94
2023-02-27T04:41:57.126Z,64.54
2023-02-27T04:44:22.861Z,64.65
2023-02-27T04:46:47.702Z,64.47
2023-02-27T04:49:20.190Z,64.53
2023-02-27T04:51:51.953Z,64.63
2023-02-27T04:54:22.792Z,64.71
2023-02-27T04:56:52.857Z,65.24
2023-02-27T04:59:26.091Z,64.56
2023-02-27T05:02:11.874Z,64.54
2023-02-27T05:04:40.363Z,64.85
2023-02-27T05:07:05.328Z,64.95
2023-02-27T05:09:38.656Z,65.14
2023-02-27T05:12:11.275Z,64.88
2023-02-27T05:14:49.975Z,65.11
2023-02-27T05:17:25.710Z,65.17
2023-02-27T05:19:48.240Z,65.59
2023-02-27T05:22:19.816Z,65.65
2023-02-27T05:25:15.580Z,65.98
2023-02-27T05:27:51.322Z,66.18
2023-02-27T05:30:32.811Z,66.67
2023-02-27T05:33:03.547Z,66.85
2023-02-27T05:35:47.191Z,66.94
2023-02-27T05:38:25.309Z,66.68
2023-02-27T05:40:56.217Z,66.47
2023-02-27T05:43:33.678Z,66.82
2023-02-27T05:46:04.394Z,66.46
2023-02-27T05:48:35.412Z,66.29
2023-02-27T05:50:59.444Z,66.37
2023-02-27T05:53:27.483Z,66.34
2023-02-27T05:55:54.635Z,66.27
2023-02-27T05:58:44.513Z,67.01
2023-02-27T06:01:10.310Z,66.73
2023-02-27T06:03:36.409Z,66.72
2023-02-27T06:06:02.033Z,66.58
2023-02-27T06:08:24.335Z,66.43
2023-02-27T06:10:46.323Z,66.44
2023-02-27T06:13:08.014Z,66.14
2023-02-27T06:15:30.137Z,66.17
2023-02-27T06:17:51.786Z,66.43
2023-02-27T06:20:13.698Z,66.19
2023-02-27T06:22:36.088Z,65.87
2023-02-27T06:24:57.698Z,65.97
2023-02-27T06:27:19.270Z,65.95
2023-02-27T06:29:40.852Z,65.71
2023-02-27T06:32:02.518Z,65.69
2023-02-27T06:34:24.175Z,65.87
2023-02-27T06:36:45.881Z,65.68
2023-02-27T06:39:07.555Z,65.12
2023-02-27T06:41:29.177Z,65.91
2023-02-27T06:43:50.847Z,65.48
2023-02-27T06:46:12.619Z,65.57
2023-02-27T06:48:34.255Z,65.63
2023-02-27T06:50:56.827Z,66.28
2023-02-27T06:53:18.418Z,66.30
2023-02-27T06:55:42.064Z,66.39
2023-02-27T06:58:03.771Z,66.58
2023-02-27T07:00:25.499Z,66.50
2023-02-27T07:02:47.159Z,66.69
2023-02-27T07:05:11.496Z,67.06
2023-02-27T07:07:37.844Z,66.97
2023-02-27T07:10:00.034Z,66.23
2023-02-27T07:12:21.950Z,66.43
2023-02-27T07:14:43.592Z,66.24
2023-02-27T07:17:05.325Z,66.75
2023-02-27T07:19:26.921Z,67.11
2023-02-27T07:21:48.616Z,66.70
2023-02-27T07:24:10.512Z,66.90
2023-02-27T07:26:32.057Z,66.90
2023-02-27T07:28:54.793Z,66.58
2023-02-27T07:31:16.490Z,66.60
2023-02-27T07:33:38.135Z,66.89
2023-02-27T07:36:00.180Z,66.83
2023-02-27T07:38:23.985Z,66.83
2023-02-27T07:40:46.541Z,66.70
2023-02-27T07:43:08.192Z,67.08
2023-02-27T07:45:29.967Z,67.11
2023-02-27T07:47:51.556Z,66.91
2023-02-27T07:50:14.124Z,66.71
2023-02-27T07:52:35.689Z,66.72
2023-02-27T07:54:57.323Z,66.85
2023-02-27T07:57:19.051Z,66.21
2023-02-27T07:59:40.676Z,66.84
2023-02-27T08:02:02.426Z,66.60
2023-02-27T08:04:24.312Z,66.43
2023-02-27T08:06:46.007Z,66.47
2023-02-27T08:09:07.741Z,66.41
2023-02-27T08:11:29.714Z,66.14
2023-02-27T08:14:00.839Z,65.74
2023-02-27T08:16:23.226Z,65.84
2023-02-27T08:18:44.839Z,66.06
2023-02-27T08:21:06.633Z,65.63
2023-02-27T08:23:28.198Z,65.66
2023-02-27T08:25:50.337Z,65.32
2023-02-27T08:28:12.047Z,65.31
2023-02-27T08:30:33.813Z,64.86
2023-02-27T08:32:55.809Z,64.76
2023-02-27T08:35:17.767Z,64.50
2023-02-27T08:37:39.341Z,64.82
2023-02-27T08:40:01.250Z,65.22
2023-02-27T08:42:23.071Z,65.02
2023-02-27T08:44:44.611Z,64.54
2023-02-27T08:47:06.347Z,64.47
2023-02-27T08:49:28.110Z,63.93
2023-02-27T08:51:49.774Z,62.99
2023-02-27T08:54:11.434Z,63.19
2023-02-27T08:56:34.763Z,62.89
2023-02-27T08:58:56.532Z,62.15
2023-02-27T09:01:19.357Z,62.42
2023-02-27T09:03:41.391Z,62.18
2023-02-27T09:06:03.289Z,62.11
2023-02-27T09:08:25.099Z,61.49
2023-02-27T09:10:47.090Z,61.08
2023-02-27T09:13:08.661Z,61.13
2023-02-27T09:15:31.801Z,61.17
2023-02-27T09:17:56.464Z,60.42
2023-02-27T09:20:18.247Z,60.17
2023-02-27T09:22:40.476Z,59.98
2023-02-27T09:25:02.179Z,59.65
2023-02-27T09:27:23.916Z,59.45
2023-02-27T09:29:45.555Z,59.02
2023-02-27T09:32:07.895Z,59.27
2023-02-27T09:34:29.720Z,59.64
2023-02-27T09:36:52.153Z,58.67
2023-02-27T09:39:13.720Z,58.06
2023-02-27T09:41:57.773Z,57.18
2023-02-27T09:44:46.203Z,56.67
2023-02-27T09:47:17.936Z,57.02
2023-02-27T09:50:00.903Z,56.43
2023-02-27T09:52:22.695Z,55.95
2023-02-27T09:54:46.341Z,55.76
2023-02-27T09:57:20.183Z,56.06
2023-02-27T10:00:00.600Z,56.39
2023-02-27T10:03:08.946Z,56.56
2023-02-27T10:06:07.198Z,56.17
2023-02-27T10:09:23.169Z,55.40
2023-02-27T10:12:07.479Z,55.15
2023-02-27T10:14:32.095Z,54.81
2023-02-27T10:16:56.630Z,54.47
2023-02-27T10:19:31.448Z,53.97
2023-02-27T10:21:55.298Z,53.73
2023-02-27T10:24:21.590Z,52.89
2023-02-27T10:26:45.850Z,52.67
2023-02-27T10:29:41.649Z,52.50
2023-02-27T10:32:13.526Z,52.29
2023-02-27T10:34:39.275Z,52.72
2023-02-27T10:37:05.349Z,53.01
2023-02-27T10:39:29.569Z,52.66
2023-02-27T10:41:52.407Z,52.06
2023-02-27T10:44:18.655Z,52.97
2023-02-27T10:46:41.015Z,51.40
2023-02-27T10:49:18.895Z,51.98
2023-02-27T10:51:41.186Z,52.27
2023-02-27T10:54:24.632Z,50.31
2023-02-27T10:56:50.775Z,49.93
2023-02-27T10:59:27.234Z,50.80
2023-02-27T11:01:57.082Z,51.29
2023-02-27T11:04:31.077Z,50.87
2023-02-27T11:06:55.599Z,49.03
2023-02-27T11:09:27.682Z,49.54
2023-02-27T11:11:51.139Z,48.92
2023-02-27T11:14:31.376Z,48.99
2023-02-27T11:17:01.780Z,50.51
2023-02-27T11:19:39.255Z,49.00
2023-02-27T11:22:15.528Z,48.13
2023-02-27T11:24:37.197Z,49.24
2023-02-27T11:27:06.223Z,49.37
2023-02-27T11:29:28.852Z,49.34
2023-02-27T11:32:15.024Z,49.24
2023-02-27T11:34:46.331Z,49.44
2023-02-27T11:37:32.984Z,49.42
2023-02-27T11:40:19.399Z,48.89
2023-02-27T11:42:48.217Z,48.48
2023-02-27T11:46:13.273Z,48.29
2023-02-27T11:48:27.055Z,49.32
2023-02-27T11:51:13.881Z,48.22
2023-02-27T11:53:44.594Z,47.72
2023-02-27T11:56:36.084Z,48.80
2023-02-27T11:59:03.626Z,49.18
2023-02-27T12:01:37.702Z,47.26
2023-02-27T12:04:24.619Z,48.57
2023-02-27T12:06:57.325Z,48.47
2023-02-27T12:09:39.112Z,48.25
2023-02-27T12:12:06.084Z,49.52
2023-02-27T12:14:59.974Z,49.34
2023-02-27T12:17:40.793Z,47.00
2023-02-27T12:20:22.458Z,47.61
2023-02-27T12:22:50.858Z,46.40
2023-02-27T12:25:34.907Z,47.10
2023-02-27T12:28:21.535Z,47.59
2023-02-27T12:31:12.629Z,46.85
2023-02-27T12:34:08.761Z,47.36
2023-02-27T12:36:31.354Z,46.78
2023-02-27T12:38:53.554Z,46.97
2023-02-27T12:42:05.887Z,47.16
2023-02-27T12:45:06.627Z,48.30
2023-02-27T12:47:58.150Z,47.34
2023-02-27T12:50:23.134Z,47.41
2023-02-27T12:53:03.938Z,47.57
2023-02-27T12:55:37.266Z,47.11
2023-02-27T12:58:10.923Z,47.28
2023-02-27T13:00:52.803Z,46.71
2023-02-27T13:04:03.142Z,45.96
2023-02-27T13:06:51.708Z,45.74
2023-02-27T13:09:44.258Z,45.43
2023-02-27T13:12:22.265Z,45.26
2023-02-27T13:14:51.924Z,45.13
2023-02-27T13:17:26.930Z,45.77
2023-02-27T13:19:59.831Z,45.29
2023-02-27T13:22:43.770Z,45.46
2023-02-27T13:25:14.403Z,45.64
2023-02-27T13:27:46.905Z,46.47
2023-02-27T13:30:18.993Z,46.27
2023-02-27T13:32:58.815Z,46.78
2023-02-27T13:35:51.980Z,45.97
2023-02-27T13:38:46.161Z,45.41
2023-02-27T13:41:23.130Z,44.93
2023-02-27T13:43:52.189Z,44.31
2023-02-27T13:46:24.662Z,45.39
2023-02-27T13:48:49.273Z,45.21
2023-02-27T13:51:39.975Z,45.49
2023-02-27T13:54:29.613Z,44.76
2023-02-27T13:57:03.316Z,44.16
2023-02-27T13:59:41.868Z,43.82
2023-02-27T14:02:32.583Z,43.78
2023-02-27T14:05:03.001Z,44.53
2023-02-27T14:07:29.734Z,44.61
2023-02-27T14:10:06.226Z,44.92
2023-02-27T14:12:57.392Z,45.58
2023-02-27T14:15:52.700Z,45.96
2023-02-27T14:18:56.732Z,46.26
2023-02-27T14:21:58.247Z,45.70
2023-02-27T14:24:46.983Z,45.90
2023-02-27T14:27:26.510Z,45.43
2023-02-27T14:29:54.006Z,45.70
2023-02-27T14:32:22.775Z,44.35
2023-02-27T14:34:44.636Z,45.19
2023-02-27T14:37:14.752Z,45.58
2023-02-27T14:39:38.270Z,45.06
2023-02-27T14:42:44.898Z,45.08
2023-02-27T14:45:24.976Z,45.11
2023-02-27T14:47:47.093Z,43.51
2023-02-27T14:50:32.111Z,44.43
2023-02-27T14:52:53.807Z,44.87
2023-02-27T14:55:34.726Z,44.43
2023-02-27T14:58:21.706Z,45.05
2023-02-27T15:01:03.385Z,46.02
2023-02-27T15:03:40.179Z,45.74
2023-02-27T15:06:13.220Z,45.72
2023-02-27T15:08:41.813Z,45.01
2023-02-27T15:11:04.134Z,45.74
2023-02-27T15:13:39.221Z,45.07
2023-02-27T15:16:40.275Z,46.01
2023-02-27T15:19:15.994Z,45.80
2023-02-27T15:21:43.209Z,46.89
2023-02-27T15:24:09.048Z,46.92
2023-02-27T15:26:37.720Z,46.60
2023-02-27T15:29:00.421Z,46.04
2023-02-27T15:31:31.294Z,45.84
2023-02-27T15:33:53.469Z,46.45
2023-02-27T15:36:22.709Z,46.25
2023-02-27T15:38:44.408Z,45.50
2023-02-27T15:41:17.607Z,46.11
2023-02-27T15:43:41.547Z,46.56
2023-02-27T15:46:10.747Z,46.10
2023-02-27T15:48:33.137Z,46.01
2023-02-27T15:50:59.430Z,45.84
2023-02-27T15:53:27.606Z,45.47
2023-02-27T15:55:56.598Z,44.92
2023-02-27T15:58:34.541Z,44.59
2023-02-27T16:01:07.702Z,45.05
2023-02-27T16:03:38.660Z,45.05
2023-02-27T16:06:01.060Z,44.64
2023-02-27T16:08:23.084Z,45.13
2023-02-27T16:10:46.650Z,45.09
2023-02-27T16:13:21.860Z,45.21
2023-02-27T16:15:44.378Z,45.41
2023-02-27T16:18:09.052Z,45.64
2023-02-27T16:20:38.548Z,45.51
2023-02-27T16:23:19.988Z,45.58
2023-02-27T16:25:58.920Z,45.65
2023-02-27T16:28:20.655Z,46.62
2023-02-27T16:30:42.651Z,46.84
2023-02-27T16:33:04.611Z,46.92
2023-02-27T16:35:27.147Z,46.92
2023-02-27T16:37:50.666Z,47.33
2023-02-27T16:40:15.197Z,47.00
2023-02-27T16:42:36.889Z,47.20
2023-02-27T16:45:00.209Z,47.34
2023-02-27T16:47:22.856Z,47.51
2023-02-27T16:49:46.270Z,47.59
2023-02-27T16:52:11.456Z,47.84
2023-02-27T16:54:33.075Z,47.90
2023-02-27T16:56:54.755Z,47.81
2023-02-27T16:59:25.998Z,48.58
2023-02-27T17:01:47.584Z,47.90
2023-02-27T17:04:24.660Z,48.48
2023-02-27T17:06:47.158Z,48.39
2023-02-27T17:09:11.520Z,48.35
2023-02-27T17:11:33.109Z,48.46
2023-02-27T17:13:56.247Z,48.62
2023-02-27T17:16:17.984Z,48.81
2023-02-27T17:18:39.604Z,49.13
2023-02-27T17:21:04.068Z,49.56
2023-02-27T17:23:25.631Z,49.46
2023-02-27T17:25:47.211Z,49.61
2023-02-27T17:28:09.783Z,49.77
2023-02-27T17:30:31.635Z,49.71
2023-02-27T17:32:53.354Z,50.14
2023-02-27T17:35:15.145Z,49.92
2023-02-27T17:37:36.904Z,50.19
2023-02-27T17:39:58.647Z,49.93
2023-02-27T17:42:20.446Z,50.05
2023-02-27T17:44:44.954Z,50.05
2023-02-27T17:47:06.705Z,50.16
2023-02-27T17:49:28.278Z,50.17
2023-02-27T17:51:49.939Z,50.51
2023-02-27T17:54:11.789Z,50.89
2023-02-27T17:56:36.793Z,50.72
2023-02-27T17:58:59.054Z,50.94
2023-02-27T18:01:25.632Z,50.75
2023-02-27T18:03:47.840Z,50.73
2023-02-27T18:06:10.069Z,50.77
2023-02-27T18:08:32.771Z,51.06
2023-02-27T18:10:54.798Z,51.53
2023-02-27T18:13:19.132Z,51.92
2023-02-27T18:15:40.845Z,51.87
2023-02-27T18:18:02.436Z,51.59
2023-02-27T18:20:24.028Z,52.02
2023-02-27T18:22:45.646Z,51.82
2023-02-27T18:25:07.863Z,52.25
2023-02-27T18:27:29.547Z,51.87
2023-02-27T18:29:51.378Z,51.91
2023-02-27T18:32:13.056Z,51.95
2023-02-27T18:34:35.238Z,51.98
2023-02-27T18:36:58.252Z,51.84
2023-02-27T18:39:20.064Z,51.77
2023-02-27T18:41:41.854Z,51.82
2023-02-27T18:44:05.680Z,51.84
2023-02-27T18:46:28.619Z,51.85
2023-02-27T18:48:50.779Z,52.20
2023-02-27T18:51:15.404Z,51.88
2023-02-27T18:53:41.535Z,52.03
2023-02-27T18:56:06.398Z,51.96
2023-02-27T18:58:28.415Z,52.15
2023-02-27T19:00:50.027Z,52.10
2023-02-27T19:03:11.935Z,52.34
2023-02-27T19:05:38.272Z,52.20
2023-02-27T19:07:59.917Z,52.60
2023-02-27T19:10:21.483Z,52.41
2023-02-27T19:12:43.307Z,52.94
2023-02-27T19:15:05.802Z,52.52
2023-02-27T19:17:28.397Z,52.49
2023-02-27T19:19:50.712Z,52.82
2023-02-27T19:22:12.369Z,53.16
2023-02-27T19:24:34.164Z,52.85
2023-02-27T19:26:55.771Z,52.91
2023-02-27T19:29:17.819Z,53.48
2023-02-27T19:31:39.677Z,53.54
2023-02-27T19:34:01.919Z,53.07
2023-02-27T19:36:26.599Z,53.75
2023-02-27T19:38:49.616Z,53.33
2023-02-27T19:41:14.661Z,53.70
2023-02-27T19:43:39.339Z,53.54
2023-02-27T19:46:11.717Z,54.11
2023-02-27T19:48:34.816Z,54.25
2023-02-27T19:50:56.387Z,53.98
2023-02-27T19:53:17.998Z,54.16
2023-02-27T19:55:39.700Z,54.07
2023-02-27T19:58:01.486Z,54.04
2023-02-27T20:00:23.604Z,54.42
2023-02-27T20:02:45.360Z,54.60
2023-02-27T20:05:07.800Z,54.43
2023-02-27T20:07:30.328Z,54.78
2023-02-27T20:09:51.916Z,54.86
2023-02-27T20:12:13.720Z,55.15
2023-02-27T20:14:36.656Z,55.22
2023-02-27T20:16:58.777Z,55.48
2023-02-27T20:19:22.733Z,56.06
2023-02-27T20:21:45.562Z,55.99
2023-02-27T20:24:10.072Z,55.83
2023-02-27T20:26:36.409Z,55.93
2023-02-27T20:29:09.209Z,55.72
2023-02-27T20:31:34.201Z,55.80
2023-02-27T20:33:57.974Z,55.79
2023-02-27T20:36:20.204Z,56.11
2023-02-27T20:38:42.732Z,56.35
2023-02-27T20:41:15.966Z,56.35
2023-02-27T20:43:38.511Z,56.38
2023-02-27T20:46:10.018Z,56.29
2023-02-27T20:48:32.306Z,56.56
2023-02-27T20:50:54.002Z,56.42
2023-02-27T20:53:15.558Z,56.59
2023-02-27T20:55:37.130Z,56.18
2023-02-27T20:57:58.833Z,56.23
2023-02-27T21:00:21.542Z,56.73
2023-02-27T21:02:44.507Z,56.83
2023-02-27T21:05:06.961Z,56.72
2023-02-27T21:07:28.749Z,56.93
2023-02-27T21:09:51.013Z,57.21
2023-02-27T21:12:13.443Z,57.59
2023-02-27T21:14:36.062Z,57.55
2023-02-27T21:16:58.602Z,57.75
2023-02-27T21:19:20.803Z,57.13
2023-02-27T21:21:42.500Z,57.52
2023-02-27T21:24:06.322Z,57.87
2023-02-27T21:26:40.541Z,57.55
2023-02-27T21:29:06.318Z,57.84
2023-02-27T21:31:32.573Z,57.12
2023-02-27T21:33:55.044Z,57.34
2023-02-27T21:36:17.321Z,57.94
2023-02-27T21:38:40.344Z,58.27
2023-02-27T21:41:12.237Z,57.92
2023-02-27T21:43:35.240Z,58.85
2023-02-27T21:45:56.851Z,58.55
2023-02-27T21:48:18.495Z,58.45
2023-02-27T21:50:40.202Z,58.08
2023-02-27T21:53:01.952Z,58.36
2023-02-27T21:55:23.523Z,58.56
2023-02-27T21:57:45.184Z,58.39
2023-02-27T22:00:11.451Z,58.46
2023-02-27T22:02:34.492Z,58.44
2023-02-27T22:04:56.242Z,58.90
2023-02-27T22:07:17.872Z,58.30
2023-02-27T22:09:39.538Z,58.30
2023-02-27T22:12:01.172Z,58.76
2023-02-27T22:14:25.053Z,58.78
2023-02-27T22:16:47.089Z,58.51
2023-02-27T22:19:19.960Z,58.71
2023-02-27T22:21:41.737Z,59.16
2023-02-27T22:24:04.196Z,59.52
2023-02-27T22:26:28.371Z,59.32
2023-02-27T22:28:52.175Z,59.41
2023-02-27T22:31:21.933Z,59.94
2023-02-27T22:33:46.531Z,59.66
2023-02-27T22:36:11.698Z,60.00
2023-02-27T22:38:33.312Z,59.83
2023-02-27T22:40:54.937Z,59.92
2023-02-27T22:43:17.003Z,60.24
2023-02-27T22:45:48.800Z,59.93
2023-02-27T22:48:10.423Z,59.38
2023-02-27T22:50:31.994Z,59.57
2023-02-27T22:52:53.621Z,59.77
2023-02-27T22:55:15.277Z,59.98
2023-02-27T22:57:36.904Z,60.29
2023-02-27T22:59:58.654Z,60.34
2023-02-27T23:02:20.208Z,59.99
2023-02-27T23:04:41.860Z,60.29
2023-02-27T23:07:03.787Z,59.81
2023-02-27T23:09:27.260Z,59.98
2023-02-27T23:11:48.909Z,60.61
2023-02-27T23:14:12.208Z,60.36
2023-02-27T23:16:34.214Z,60.56
2023-02-27T23:18:59.354Z,61.08
2023-02-27T23:21:30.182Z,60.80
2023-02-27T23:23:57.563Z,60.69
2023-02-27T23:26:19.869Z,60.63
2023-02-27T23:28:42.740Z,60.49
2023-02-27T23:31:06.895Z,60.19
2023-02-27T23:33:30.176Z,60.93
2023-02-27T23:35:52.425Z,60.70
2023-02-27T23:38:14.057Z,60.90
2023-02-27T23:40:36.183Z,60.80
2023-02-27T23:42:57.801Z,61.14
2023-02-27T23:45:22.844Z,61.15
2023-02-27T23:47:51.958Z,61.21
2023-02-27T23:50:13.693Z,61.59
2023-02-27T23:52:35.292Z,61.65
2023-02-27T23:54:56.889Z,61.76
2023-02-27T23:57:18.481Z,61.50
2023-02-27T23:59:40.109Z,61.59
